Time;durP1;ratioP1;P1;durP2;ratioP2;P2;SDS_P1;SDS_P2;PMS_P1;PMS_P2;Temp;Humidity;BMP_temperature;BMP_pressure;BME280_temperature;BME280_humidity;BME280_pressure;Samples;Min_cycle;Max_cycle;Signal;HPM_P1;HPM_P2
2023/07/04 00:01:07;;;;;;;8.20;2.37;;;17.50;12.80;;;;;;5056601;28;20563;-91
2023/07/04 00:03:34;;;;;;;11.60;2.70;;;18.00;34.90;;;;;;5074184;28;20280;-90
2023/07/04 00:05:59;;;;;;;11.63;2.80;;;17.00;40.40;;;;;;5055835;28;20170;-90
2023/07/04 00:08:26;;;;;;;10.40;2.90;;;17.20;49.30;;;;;;5074258;28;20227;-91
2023/07/04 00:10:56;;;;;;;9.93;2.43;;;17.20;91.30;;;;;;5056161;28;20216;-91
2023/07/04 00:13:22;;;;;;;7.80;2.50;;;17.10;99.90;;;;;;5055190;28;20174;-91
2023/07/04 00:15:49;;;;;;;12.70;2.50;;;17.10;99.90;;;;;;5056480;28;20184;-91
2023/07/04 00:18:20;;;;;;;8.33;2.47;;;17.30;99.90;;;;;;5057220;28;20209;-91
2023/07/04 00:20:54;;;;;;;12.57;2.40;;;17.10;99.90;;;;;;5056851;28;20175;-91
2023/07/04 00:23:21;;;;;;;9.60;2.50;;;17.10;99.90;;;;;;5056910;28;20194;-91
2023/07/04 00:25:47;;;;;;;11.20;2.83;;;17.00;99.90;;;;;;5074902;28;20167;-91
2023/07/04 00:28:12;;;;;;;7.00;2.40;;;17.10;99.90;;;;;;5074083;28;20621;-90
2023/07/04 00:30:38;;;;;;;7.63;2.53;;;17.00;99.90;;;;;;5055915;28;20563;-91
2023/07/04 00:33:04;;;;;;;7.13;2.23;;;16.90;99.90;;;;;;5055771;28;20183;-91
2023/07/04 00:35:29;;;;;;;10.07;2.47;;;16.90;99.90;;;;;;5055961;28;20664;-91
2023/07/04 00:37:56;;;;;;;9.80;2.57;;;16.90;99.90;;;;;;5056113;28;20183;-91
2023/07/04 00:40:23;;;;;;;10.27;2.73;;;16.70;99.90;;;;;;5056913;28;20199;-91
2023/07/04 00:42:51;;;;;;;9.87;2.07;;;16.80;99.90;;;;;;5073937;28;20290;-91
2023/07/04 00:45:21;;;;;;;9.07;2.23;;;16.80;99.90;;;;;;5056207;28;20179;-91
2023/07/04 00:47:55;;;;;;;7.83;2.50;;;16.80;99.90;;;;;;5073610;28;20601;-90
2023/07/04 00:50:26;;;;;;;8.40;2.93;;;16.80;99.90;;;;;;5073657;28;20277;-90
2023/07/04 00:52:55;;;;;;;6.90;2.70;;;16.70;99.90;;;;;;5056163;28;20617;-91
2023/07/04 00:55:21;;;;;;;9.07;2.70;;;16.70;99.90;;;;;;5055024;28;20266;-91
2023/07/04 00:57:47;;;;;;;11.30;2.83;;;16.70;99.90;;;;;;5055408;28;20266;-91
2023/07/04 01:00:19;;;;;;;12.30;2.70;;;17.80;99.90;;;;;;5056865;28;20229;-91
2023/07/04 01:02:48;;;;;;;6.60;2.00;;;16.60;99.90;;;;;;5056173;28;20567;-91
2023/07/04 01:05:50;;;;;;;9.20;2.40;;;16.60;99.90;;;;;;5056348;28;20262;-91
2023/07/04 01:08:41;;;;;;;11.47;2.67;;;16.60;99.90;;;;;;5016883;28;20182;-91
2023/07/04 01:11:21;;;;;;;11.47;2.50;;;16.50;99.90;;;;;;5055345;28;20177;-91
2023/07/04 01:13:47;;;;;;;9.50;2.70;;;16.40;99.90;;;;;;5055425;28;20566;-90
2023/07/04 01:16:16;;;;;;;11.27;2.70;;;16.60;99.90;;;;;;5055999;28;20193;-91
2023/07/04 01:18:46;;;;;;;11.77;2.83;;;16.40;99.90;;;;;;5055868;28;20692;-91
2023/07/04 01:21:14;;;;;;;7.57;2.20;;;16.40;99.90;;;;;;5055834;28;20552;-91
2023/07/04 01:24:05;;;;;;;7.00;2.20;;;17.30;99.90;;;;;;5055581;28;20642;-91
2023/07/04 01:26:37;;;;;;;11.27;2.73;;;16.50;99.90;;;;;;5059563;28;20493;-91
2023/07/04 01:29:08;;;;;;;12.60;2.80;;;16.30;99.90;;;;;;5059727;28;20190;-91
2023/07/04 01:31:35;;;;;;;9.97;2.37;;;16.30;99.90;;;;;;5059867;28;20171;-91
2023/07/04 01:34:04;;;;;;;10.27;2.37;;;16.20;99.90;;;;;;5059434;28;20537;-91
2023/07/04 01:36:35;;;;;;;6.33;2.53;;;16.20;99.90;;;;;;5059348;28;20243;-91
2023/07/04 01:39:01;;;;;;;11.20;3.00;;;16.20;99.90;;;;;;5058899;28;20191;-91
2023/07/04 01:41:28;;;;;;;7.37;2.33;;;16.20;99.90;;;;;;5059548;28;20175;-91
2023/07/04 01:43:59;;;;;;;8.50;2.60;;;16.10;99.90;;;;;;5059055;28;20226;-91
2023/07/04 01:46:25;;;;;;;11.37;2.53;;;16.10;99.90;;;;;;5058888;28;20190;-91
2023/07/04 01:48:51;;;;;;;13.03;2.50;;;16.30;99.90;;;;;;5058987;28;20202;-91
2023/07/04 01:51:22;;;;;;;12.00;3.00;;;16.10;99.90;;;;;;5059328;28;20174;-91
2023/07/04 01:53:48;;;;;;;10.23;2.37;;;16.10;99.90;;;;;;5077992;28;20170;-90
2023/07/04 01:56:14;;;;;;;7.63;2.40;;;16.00;99.90;;;;;;5076777;28;20179;-91
2023/07/04 01:58:39;;;;;;;11.27;2.90;;;16.00;99.90;;;;;;5058700;28;20632;-91
2023/07/04 02:01:05;;;;;;;14.97;3.47;;;16.00;99.90;;;;;;5058679;28;20179;-90
2023/07/04 02:03:30;;;;;;;11.57;2.53;;;16.00;99.90;;;;;;5058270;28;20550;-91
2023/07/04 02:06:00;;;;;;;10.37;2.63;;;16.00;99.90;;;;;;5075484;28;20175;-91
2023/07/04 02:08:26;;;;;;;12.70;2.43;;;15.90;99.90;;;;;;5057866;28;20183;-91
2023/07/04 02:10:52;;;;;;;13.27;2.80;;;15.90;99.90;;;;;;5058101;28;20227;-91
2023/07/04 02:13:17;;;;;;;12.80;2.77;;;15.90;99.90;;;;;;5058156;28;20183;-91
2023/07/04 02:15:43;;;;;;;13.37;2.73;;;15.90;99.90;;;;;;5058125;28;20231;-91
2023/07/04 02:18:08;;;;;;;11.23;3.40;;;15.90;99.90;;;;;;5058519;28;20195;-91
2023/07/04 02:20:34;;;;;;;10.77;2.53;;;15.90;99.90;;;;;;5059143;28;20203;-91
2023/07/04 02:22:59;;;;;;;8.00;2.80;;;15.80;99.90;;;;;;5059108;28;20195;-91
2023/07/04 02:25:25;;;;;;;7.90;2.70;;;15.80;99.90;;;;;;5080062;28;20246;-91
2023/07/04 02:27:51;;;;;;;14.73;3.33;;;15.80;99.90;;;;;;5058384;28;20240;-91
2023/07/04 02:30:16;;;;;;;12.60;2.90;;;15.70;99.90;;;;;;5059241;28;20265;-91
2023/07/04 02:32:42;;;;;;;9.77;2.50;;;15.70;99.90;;;;;;5058726;28;20713;-91
2023/07/04 02:35:08;;;;;;;8.87;2.90;;;15.60;99.90;;;;;;5076340;28;20174;-91
2023/07/04 02:37:34;;;;;;;6.30;2.40;;;15.60;99.90;;;;;;5057012;28;20193;-91
2023/07/04 02:39:59;;;;;;;13.63;3.30;;;16.20;99.90;;;;;;5057619;28;20637;-91
2023/07/04 02:42:25;;;;;;;16.53;3.50;;;15.60;1.00;;;;;;5076656;28;20186;-91
2023/07/04 02:44:51;;;;;;;10.93;2.90;;;15.60;1.00;;;;;;5076212;28;20167;-91
2023/07/04 02:47:18;;;;;;;16.43;3.13;;;15.60;1.00;;;;;;5058404;28;20178;-91
2023/07/04 02:49:43;;;;;;;14.03;3.73;;;15.60;1.00;;;;;;5057791;28;20680;-91
2023/07/04 02:52:09;;;;;;;13.57;3.80;;;15.60;1.00;;;;;;5059180;28;20203;-91
2023/07/04 02:54:35;;;;;;;14.13;3.30;;;15.60;1.00;;;;;;5059612;28;20205;-91
2023/07/04 02:57:00;;;;;;;10.87;3.13;;;15.60;1.00;;;;;;5076427;28;20185;-91
2023/07/04 02:59:26;;;;;;;12.07;3.17;;;15.50;1.00;;;;;;5057910;28;20245;-90
2023/07/04 03:01:53;;;;;;;12.80;2.97;;;15.60;1.00;;;;;;5058424;28;20720;-91
2023/07/04 03:04:19;;;;;;;16.53;2.80;;;15.60;1.00;;;;;;5058096;28;20195;-91
2023/07/04 03:06:45;;;;;;;11.53;2.70;;;15.60;1.00;;;;;;5058381;28;20258;-91
2023/07/04 03:09:10;;;;;;;10.27;2.77;;;15.60;1.00;;;;;;5058076;28;20707;-91
2023/07/04 03:11:36;;;;;;;10.57;3.00;;;15.50;1.00;;;;;;5076541;28;20206;-91
2023/07/04 03:14:02;;;;;;;13.57;2.87;;;15.90;1.00;;;;;;5058231;28;20616;-91
2023/07/04 03:16:28;;;;;;;12.70;3.20;;;15.50;1.00;;;;;;5059079;28;20178;-90
2023/07/04 03:18:53;;;;;;;12.70;3.00;;;15.60;1.00;;;;;;5058187;28;20211;-91
2023/07/04 03:21:20;;;;;;;12.20;2.83;;;15.60;1.00;;;;;;5057552;28;20525;-91
2023/07/04 03:23:46;;;;;;;10.97;3.00;;;15.60;1.00;;;;;;5057891;28;20194;-91
2023/07/04 03:26:12;;;;;;;10.53;2.90;;;15.50;1.00;;;;;;5057722;28;20171;-91
2023/07/04 03:28:38;;;;;;;13.60;3.13;;;16.00;1.00;;;;;;5057619;28;20171;-91
2023/07/04 03:31:04;;;;;;;12.67;2.43;;;15.50;1.00;;;;;;5057132;28;20265;-91
2023/07/04 03:33:30;;;;;;;9.83;3.13;;;15.70;1.00;;;;;;5056968;28;20599;-91
2023/07/04 03:35:55;;;;;;;14.23;3.33;;;15.50;1.00;;;;;;5057843;28;20594;-90
2023/07/04 03:38:21;;;;;;;15.90;3.00;;;15.40;1.00;;;;;;5076525;28;20186;-91
2023/07/04 03:40:46;;;;;;;11.67;3.17;;;15.50;1.00;;;;;;5094181;28;20198;-91
2023/07/04 03:43:12;;;;;;;10.40;2.93;;;15.40;1.00;;;;;;5076961;28;20270;-91
2023/07/04 03:45:38;;;;;;;15.67;3.50;;;15.40;1.00;;;;;;5077338;28;20183;-91
2023/07/04 03:48:03;;;;;;;16.17;3.13;;;15.40;1.00;;;;;;5076443;28;20179;-91
2023/07/04 03:50:29;;;;;;;10.53;3.37;;;15.40;1.00;;;;;;5064639;28;20248;-91
2023/07/04 03:52:54;;;;;;;12.03;2.80;;;15.30;1.00;;;;;;5058292;28;20183;-91
2023/07/04 03:55:20;;;;;;;17.10;3.57;;;15.30;1.00;;;;;;5057869;28;20209;-91
2023/07/04 03:57:47;;;;;;;15.03;3.30;;;15.30;1.00;;;;;;5057564;28;20301;-91
2023/07/04 04:00:13;;;;;;;16.67;3.23;;;15.40;1.00;;;;;;5057345;28;20202;-91
2023/07/04 04:02:39;;;;;;;13.37;3.53;;;15.30;1.00;;;;;;5075140;28;20171;-91
2023/07/04 04:05:04;;;;;;;14.03;3.77;;;15.30;1.00;;;;;;5056495;28;20182;-91
2023/07/04 04:07:30;;;;;;;14.57;3.07;;;15.30;1.00;;;;;;5056754;28;20179;-91
2023/07/04 04:09:55;;;;;;;12.93;2.83;;;15.10;1.00;;;;;;5056674;28;20194;-91
2023/07/04 04:12:21;;;;;;;15.60;3.97;;;15.20;1.00;;;;;;5056363;28;20175;-91
2023/07/04 04:14:47;;;;;;;11.13;3.23;;;15.40;1.00;;;;;;5056674;28;20183;-91
2023/07/04 04:17:13;;;;;;;15.87;3.23;;;15.30;1.00;;;;;;5056495;28;20198;-91
2023/07/04 04:19:38;;;;;;;14.37;3.20;;;16.40;1.00;;;;;;5056317;28;20199;-91
2023/07/04 04:22:04;;;;;;;13.57;3.73;;;16.10;1.00;;;;;;5056330;28;20351;-91
2023/07/04 04:24:29;;;;;;;15.87;3.23;;;15.20;1.00;;;;;;5056677;28;20194;-91
2023/07/04 04:27:00;;;;;;;10.53;3.10;;;15.10;1.00;;;;;;5056406;28;20167;-91
2023/07/04 04:29:28;;;;;;;12.93;2.87;;;15.30;1.00;;;;;;5056008;28;20187;-91
2023/07/04 04:31:53;;;;;;;13.80;3.17;;;14.70;1.00;;;;;;5055752;28;20225;-91
2023/07/04 04:34:21;;;;;;;16.17;3.87;;;15.10;1.00;;;;;;5056227;28;20175;-91
2023/07/04 04:36:47;;;;;;;11.10;3.10;;;15.10;1.00;;;;;;5056433;28;20202;-90
2023/07/04 04:39:13;;;;;;;20.13;3.87;;;15.20;1.00;;;;;;5055491;28;20649;-91
2023/07/04 04:41:39;;;;;;;18.47;3.10;;;15.10;1.00;;;;;;5055792;28;20175;-91
2023/07/04 04:44:04;;;;;;;15.77;3.60;;;15.70;1.00;;;;;;5073951;28;20206;-91
2023/07/04 04:46:31;;;;;;;11.97;3.63;;;15.30;1.00;;;;;;5055756;28;20175;-91
2023/07/04 04:49:03;;;;;;;15.07;3.40;;;15.20;1.00;;;;;;5056254;28;20277;-90
2023/07/04 04:51:31;;;;;;;12.90;3.10;;;15.40;1.00;;;;;;5074160;28;20147;-91
2023/07/04 04:53:57;;;;;;;12.20;3.67;;;15.20;1.00;;;;;;5056350;28;20183;-91
2023/07/04 04:56:23;;;;;;;10.60;3.17;;;15.20;1.00;;;;;;5055536;28;20175;-91
2023/07/04 04:58:48;;;;;;;13.67;3.40;;;15.30;1.00;;;;;;5055873;28;20663;-91
2023/07/04 05:01:17;;;;;;;13.40;3.20;;;15.30;1.00;;;;;;5058861;28;20175;-90
2023/07/04 05:03:43;;;;;;;12.73;2.93;;;15.40;1.00;;;;;;5059480;28;20220;-91
2023/07/04 05:06:09;;;;;;;13.00;3.00;;;15.40;1.00;;;;;;5077256;28;20224;-91
2023/07/04 05:08:35;;;;;;;13.43;3.60;;;16.60;1.00;;;;;;5059420;28;20273;-91
2023/07/04 05:11:06;;;;;;;13.10;3.70;;;15.50;1.00;;;;;;5059352;28;20167;-90
2023/07/04 05:13:37;;;;;;;19.03;3.63;;;15.60;1.00;;;;;;5077712;28;20239;-90
2023/07/04 05:16:05;;;;;;;16.40;3.70;;;15.60;1.00;;;;;;5059536;28;20174;-90
2023/07/04 05:18:33;;;;;;;13.80;3.23;;;15.60;1.00;;;;;;5058966;28;20191;-91
2023/07/04 05:21:04;;;;;;;15.27;3.60;;;16.00;1.00;;;;;;5076959;28;20171;-91
2023/07/04 05:23:38;;;;;;;12.30;3.53;;;16.40;1.00;;;;;;5058982;28;20281;-91
2023/07/04 05:26:09;;;;;;;12.73;3.20;;;16.30;1.00;;;;;;5077025;28;20162;-90
2023/07/04 05:28:36;;;;;;;14.53;3.73;;;15.70;1.00;;;;;;5058843;28;20191;-90
2023/07/04 05:31:05;;;;;;;11.90;3.30;;;16.10;1.00;;;;;;5058371;28;20175;-90
2023/07/04 05:33:32;;;;;;;16.40;3.50;;;16.50;1.00;;;;;;5058056;28;20655;-90
2023/07/04 05:36:15;;;;;;;17.70;4.63;;;16.90;1.00;;;;;;5058182;28;20194;-90
2023/07/04 05:38:41;;;;;;;13.53;3.50;;;15.90;1.00;;;;;;5058917;28;20517;-90
2023/07/04 05:41:09;;;;;;;12.93;3.43;;;16.00;1.00;;;;;;5057976;28;20652;-90
2023/07/04 05:43:36;;;;;;;12.70;3.70;;;16.00;1.00;;;;;;5058329;28;20540;-91
2023/07/04 05:46:02;;;;;;;17.60;3.77;;;15.90;1.00;;;;;;5058575;28;20178;-90
2023/07/04 05:48:28;;;;;;;11.70;3.37;;;16.00;1.00;;;;;;5058405;28;20244;-90
2023/07/04 05:50:59;;;;;;;14.43;3.17;;;16.00;1.00;;;;;;5058940;28;20171;-91
2023/07/04 05:53:30;;;;;;;15.07;3.13;;;16.00;1.00;;;;;;5058259;28;20174;-90
2023/07/04 05:56:06;;;;;;;17.20;3.90;;;16.10;1.00;;;;;;5058167;28;20167;-90
2023/07/04 05:58:32;;;;;;;15.40;4.00;;;16.10;1.00;;;;;;5057646;28;20217;-91
2023/07/04 06:01:08;;;;;;;14.30;3.80;;;16.10;1.00;;;;;;5058709;28;20195;-90
2023/07/04 06:03:34;;;;;;;22.37;4.53;;;16.20;1.00;;;;;;5076902;28;20261;-90
2023/07/04 06:06:02;;;;;;;14.27;4.07;;;16.20;1.00;;;;;;5058430;28;20166;-91
2023/07/04 06:08:28;;;;;;;17.93;3.47;;;16.20;1.00;;;;;;5077565;28;20219;-91
2023/07/04 06:11:04;;;;;;;11.80;3.70;;;17.20;1.00;;;;;;5078687;28;20252;-91
2023/07/04 06:13:31;;;;;;;11.67;3.37;;;16.20;1.00;;;;;;5080050;28;20157;-91
2023/07/04 06:15:58;;;;;;;19.57;3.63;;;16.40;1.00;;;;;;5062283;28;20305;-90
2023/07/04 06:18:25;;;;;;;17.30;3.57;;;16.40;1.00;;;;;;5073906;28;20186;-90
2023/07/04 06:20:50;;;;;;;14.80;3.90;;;16.40;1.00;;;;;;5074849;28;20190;-90
2023/07/04 06:23:19;;;;;;;19.53;4.47;;;16.40;1.00;;;;;;5073930;28;20294;-90
2023/07/04 06:25:45;;;;;;;23.67;4.60;;;16.40;1.00;;;;;;5074497;28;20248;-90
2023/07/04 06:28:11;;;;;;;20.77;3.90;;;16.40;1.00;;;;;;5075890;28;20174;-90
2023/07/04 06:30:38;;;;;;;18.10;4.00;;;16.50;1.00;;;;;;5093500;28;20190;-90
2023/07/04 06:33:04;;;;;;;20.67;4.73;;;16.40;1.00;;;;;;5096827;28;20170;-90
2023/07/04 06:35:30;;;;;;;10.33;3.13;;;16.50;1.00;;;;;;5079444;28;20195;-90
2023/07/04 06:37:56;;;;;;;20.17;3.53;;;16.40;1.00;;;;;;5081152;28;20167;-91
2023/07/04 06:40:22;;;;;;;13.23;3.67;;;16.60;1.00;;;;;;5092405;28;20274;-90
2023/07/04 06:42:47;;;;;;;15.50;3.43;;;17.60;1.00;;;;;;5059103;28;20240;-91
2023/07/04 06:45:13;;;;;;;15.70;4.37;;;17.40;1.00;;;;;;5075500;28;20182;-90
2023/07/04 06:47:39;;;;;;;16.93;3.60;;;16.40;1.00;;;;;;5075118;28;20655;-91
2023/07/04 06:50:06;;;;;;;14.97;3.87;;;16.60;1.00;;;;;;5074755;28;20252;-92
2023/07/04 06:52:35;;;;;;;15.87;3.93;;;16.50;1.00;;;;;;5075145;28;20277;-91
2023/07/04 06:55:00;;;;;;;14.73;4.40;;;16.60;1.00;;;;;;5067265;28;20171;-90
2023/07/04 06:57:26;;;;;;;11.77;3.30;;;17.90;1.00;;;;;;5077493;28;20715;-90
2023/07/04 06:59:51;;;;;;;15.17;3.43;;;16.60;1.00;;;;;;5075613;28;20213;-90
2023/07/04 07:02:17;;;;;;;15.17;4.20;;;16.70;1.00;;;;;;5057519;28;20187;-91
2023/07/04 07:04:43;;;;;;;12.67;3.83;;;16.70;1.00;;;;;;5057271;28;20195;-91
2023/07/04 07:07:10;;;;;;;13.90;3.63;;;16.50;1.00;;;;;;5056747;28;20179;-90
2023/07/04 07:09:40;;;;;;;12.93;3.73;;;16.70;1.00;;;;;;5057055;28;20199;-91
2023/07/04 07:12:08;;;;;;;9.40;3.30;;;16.70;1.00;;;;;;5057030;28;20539;-90
2023/07/04 07:14:34;;;;;;;16.77;4.30;;;16.80;99.90;;;;;;5075203;28;20254;-91
2023/07/04 07:17:00;;;;;;;13.03;4.13;;;16.90;99.90;;;;;;5056468;28;20190;-91
2023/07/04 07:19:26;;;;;;;13.23;3.80;;;17.00;99.90;;;;;;5056433;28;20212;-91
2023/07/04 07:21:52;;;;;;;11.00;3.53;;;17.10;99.90;;;;;;5056569;28;20178;-90
2023/07/04 07:24:17;;;;;;;10.33;3.47;;;17.10;99.90;;;;;;5055917;28;20203;-91
2023/07/04 07:26:43;;;;;;;15.63;3.43;;;17.30;99.90;;;;;;5074499;28;20254;-91
2023/07/04 07:29:08;;;;;;;15.00;3.47;;;17.20;99.90;;;;;;5056286;28;20187;-91
2023/07/04 07:31:34;;;;;;;16.80;3.60;;;17.50;99.90;;;;;;5056606;28;20210;-91
2023/07/04 07:34:02;;;;;;;9.67;3.00;;;17.40;99.90;;;;;;5056674;28;20304;-91
2023/07/04 07:36:30;;;;;;;14.77;2.87;;;17.40;99.90;;;;;;5056215;28;20232;-90
2023/07/04 07:38:57;;;;;;;13.90;3.20;;;17.40;99.90;;;;;;5056175;28;20203;-90
2023/07/04 07:41:28;;;;;;;13.97;2.90;;;17.60;99.90;;;;;;5073853;28;20649;-90
2023/07/04 07:43:54;;;;;;;15.17;3.57;;;17.70;99.90;;;;;;5074607;28;20195;-90
2023/07/04 07:46:20;;;;;;;11.60;3.10;;;17.60;99.90;;;;;;5073842;28;20659;-90
2023/07/04 07:48:48;;;;;;;13.00;3.03;;;17.50;99.90;;;;;;5055987;28;20198;-90
2023/07/04 07:51:13;;;;;;;7.83;2.53;;;17.60;99.90;;;;;;5056075;28;20175;-91
2023/07/04 07:53:41;;;;;;;9.93;3.10;;;17.60;99.90;;;;;;5056697;28;20537;-90
2023/07/04 07:56:09;;;;;;;10.70;3.10;;;17.80;99.90;;;;;;5073354;28;20181;-91
2023/07/04 07:58:36;;;;;;;13.03;3.13;;;17.70;99.90;;;;;;5073801;28;20194;-91
2023/07/04 08:01:15;;;;;;;13.27;3.07;;;18.20;99.90;;;;;;5056573;28;20213;-90
2023/07/04 08:03:42;;;;;;;11.47;3.00;;;17.90;99.90;;;;;;5055316;28;20202;-91
2023/07/04 08:06:29;;;;;;;15.87;2.83;;;17.90;99.90;;;;;;5056259;28;20175;-90
2023/07/04 08:08:57;;;;;;;13.27;2.80;;;18.00;99.90;;;;;;5055420;28;20692;-91
2023/07/04 08:11:24;;;;;;;8.43;2.83;;;18.00;99.90;;;;;;5074074;28;20704;-91
2023/07/04 08:13:50;;;;;;;11.83;2.50;;;18.10;69.20;;;;;;5055832;28;20183;-90
2023/07/04 08:16:19;;;;;;;12.13;2.67;;;18.20;42.20;;;;;;5055920;28;20744;-90
2023/07/04 08:18:45;;;;;;;11.23;2.70;;;18.20;39.00;;;;;;5055840;28;20222;-91
2023/07/04 08:21:10;;;;;;;11.93;2.80;;;18.10;13.80;;;;;;5056106;28;20269;-91
2023/07/04 08:23:36;;;;;;;8.47;2.47;;;18.10;17.00;;;;;;5056209;28;20637;-91
2023/07/04 08:26:02;;;;;;;10.40;2.87;;;18.20;52.00;;;;;;5074037;28;20540;-90
2023/07/04 08:28:27;;;;;;;10.80;2.20;;;18.50;1.00;;;;;;5056476;28;20186;-91
2023/07/04 08:30:53;;;;;;;8.97;2.73;;;18.30;1.00;;;;;;5055904;28;20266;-90
2023/07/04 08:33:19;;;;;;;7.80;2.67;;;18.50;1.00;;;;;;5074194;28;20656;-90
2023/07/04 08:35:58;;;;;;;7.57;2.20;;;18.70;1.00;;;;;;5075445;28;20637;-90
2023/07/04 08:38:24;;;;;;;11.70;2.40;;;18.40;1.00;;;;;;5059090;28;20171;-91
2023/07/04 08:40:50;;;;;;;11.53;2.90;;;18.30;1.00;;;;;;5060222;28;20296;-90
2023/07/04 08:43:34;;;;;;;9.07;2.70;;;18.50;1.00;;;;;;5058915;28;20202;-91
2023/07/04 08:46:05;;;;;;;8.07;2.50;;;18.60;1.00;;;;;;5059922;28;20173;-91
2023/07/04 08:48:32;;;;;;;8.07;2.40;;;18.80;1.00;;;;;;5059120;28;20248;-91
2023/07/04 08:51:01;;;;;;;10.30;2.00;;;18.70;1.00;;;;;;5077649;28;20250;-91
2023/07/04 08:53:26;;;;;;;9.83;2.10;;;18.80;1.00;;;;;;5059002;28;20637;-90
2023/07/04 08:56:08;;;;;;;8.40;2.13;;;18.90;1.00;;;;;;5059014;28;20211;-90
2023/07/04 08:58:53;;;;;;;8.50;2.10;;;18.80;1.00;;;;;;5077629;28;20163;-91
2023/07/04 09:01:35;;;;;;;10.13;2.20;;;18.90;1.00;;;;;;5058658;28;20163;-90
2023/07/04 09:04:35;;;;;;;9.17;2.00;;;19.00;1.00;;;;;;5077536;28;20651;-90
2023/07/04 09:07:15;;;;;;;10.27;2.07;;;19.00;1.00;;;;;;5048551;28;20251;-91
2023/07/04 09:10:09;;;;;;;10.53;2.27;;;19.00;1.00;;;;;;5059406;28;20199;-91
2023/07/04 09:12:37;;;;;;;10.07;2.33;;;19.10;1.00;;;;;;5041522;28;20241;-90
2023/07/04 09:15:29;;;;;;;9.27;2.23;;;19.00;1.00;;;;;;5058637;28;20228;-90
2023/07/04 09:18:14;;;;;;;9.20;2.33;;;19.10;1.00;;;;;;5076402;28;20270;-91
2023/07/04 09:21:11;;;;;;;7.93;1.90;;;19.10;1.00;;;;;;5058701;28;20680;-91
2023/07/04 09:23:37;;;;;;;8.77;2.13;;;19.20;1.00;;;;;;5058494;28;20293;-91
2023/07/04 09:26:03;;;;;;;8.47;2.17;;;19.10;1.00;;;;;;5076474;28;20170;-91
2023/07/04 09:28:31;;;;;;;11.40;2.63;;;19.70;1.00;;;;;;5076512;28;20644;-90
2023/07/04 09:30:58;;;;;;;11.83;1.83;;;19.30;1.00;;;;;;5058540;28;20186;-91
2023/07/04 09:33:27;;;;;;;6.70;2.10;;;19.60;1.00;;;;;;5058864;28;20253;-91
2023/07/04 09:35:56;;;;;;;7.07;1.90;;;19.60;99.90;;;;;;5058105;28;20179;-91
2023/07/04 09:38:21;;;;;;;8.77;2.03;;;19.80;1.00;;;;;;5058583;28;20225;-91
2023/07/04 09:40:51;;;;;;;4.40;1.80;;;19.80;1.00;;;;;;5058614;28;20210;-91
2023/07/04 09:43:30;;;;;;;6.30;2.27;;;19.80;1.00;;;;;;5058416;28;20198;-91
2023/07/04 09:46:22;;;;;;;7.53;1.93;;;19.90;99.90;;;;;;5058153;28;20232;-91
2023/07/04 09:48:48;;;;;;;11.40;1.97;;;19.80;99.90;;;;;;5059751;28;20567;-91
2023/07/04 09:51:27;;;;;;;8.13;1.87;;;19.80;99.90;;;;;;5059675;28;20175;-91
2023/07/04 09:54:11;;;;;;;8.80;2.20;;;19.90;1.00;;;;;;5061724;28;20183;-90
2023/07/04 09:56:37;;;;;;;6.97;2.27;;;20.00;99.90;;;;;;5078813;28;20171;-91
2023/07/04 09:59:29;;;;;;;7.53;2.33;;;20.00;99.90;;;;;;5066672;28;20275;-91
2023/07/04 10:02:10;;;;;;;6.47;1.83;;;20.20;1.00;;;;;;5060794;28;20189;-90
2023/07/04 10:04:38;;;;;;;7.07;2.40;;;20.10;99.90;;;;;;5060710;28;20220;-91
2023/07/04 10:07:12;;;;;;;7.53;1.90;;;20.20;1.00;;;;;;5076497;28;20220;-90
2023/07/04 10:09:49;;;;;;;8.93;2.20;;;20.40;99.90;;;;;;5058094;28;20579;-91
2023/07/04 10:12:17;;;;;;;4.87;1.80;;;20.20;99.90;;;;;;5057557;28;20262;-91
2023/07/04 10:14:46;;;;;;;5.77;1.90;;;20.20;99.90;;;;;;5057855;28;20186;-91
2023/07/04 10:17:18;;;;;;;6.33;2.20;;;20.40;99.90;;;;;;5057567;28;20551;-91
2023/07/04 10:19:47;;;;;;;5.50;1.77;;;20.50;99.90;;;;;;5057701;28;20224;-91
2023/07/04 10:22:21;;;;;;;5.67;2.10;;;20.40;42.20;;;;;;5057399;28;20175;-90
2023/07/04 10:24:48;;;;;;;5.97;1.90;;;20.50;1.00;;;;;;5075399;28;20236;-90
2023/07/04 10:27:14;;;;;;;9.63;1.87;;;20.40;1.00;;;;;;5075672;28;20167;-91
2023/07/04 10:29:46;;;;;;;4.13;1.70;;;20.50;45.70;;;;;;5057911;28;20202;-90
2023/07/04 10:32:16;;;;;;;7.70;2.37;;;20.50;1.00;;;;;;5057618;28;20163;-91
2023/07/04 10:34:46;;;;;;;6.73;1.90;;;20.50;1.00;;;;;;5057814;28;20178;-91
2023/07/04 10:37:18;;;;;;;7.60;2.03;;;20.50;1.00;;;;;;5056685;28;20274;-91
2023/07/04 10:39:44;;;;;;;5.70;1.50;;;20.70;99.90;;;;;;5075389;28;20313;-91
2023/07/04 10:42:09;;;;;;;6.20;1.80;;;20.80;1.00;;;;;;5058179;28;20644;-91
2023/07/04 10:44:37;;;;;;;5.50;1.80;;;21.00;1.00;;;;;;5057151;28;20202;-91
2023/07/04 10:47:12;;;;;;;8.57;2.33;;;20.90;1.00;;;;;;5056953;28;20575;-91
2023/07/04 10:49:45;;;;;;;4.43;1.90;;;20.80;1.00;;;;;;5057152;28;20191;-91
2023/07/04 10:52:17;;;;;;;5.20;1.93;;;20.80;1.00;;;;;;5058683;28;20288;-91
2023/07/04 10:54:42;;;;;;;6.13;2.00;;;20.90;99.90;;;;;;5075111;28;20178;-91
2023/07/04 10:57:20;;;;;;;9.23;2.20;;;21.00;60.00;;;;;;5056766;28;20179;-91
2023/07/04 10:59:48;;;;;;;6.37;1.97;;;21.10;1.00;;;;;;5057298;28;20290;-91
2023/07/04 11:02:44;;;;;;;5.57;1.60;;;21.40;1.00;;;;;;5056647;28;20629;-91
2023/07/04 11:05:19;;;;;;;6.63;1.87;;;21.20;1.00;;;;;;5074935;28;20167;-91
2023/07/04 11:07:45;;;;;;;6.87;1.90;;;21.10;1.00;;;;;;5074279;28;20167;-90
2023/07/04 11:10:13;;;;;;;8.20;2.03;;;21.20;99.90;;;;;;5075005;28;20274;-90
2023/07/04 11:12:42;;;;;;;6.13;2.10;;;21.10;1.00;;;;;;5056416;28;20207;-90
2023/07/04 11:15:22;;;;;;;5.30;2.07;;;21.30;1.00;;;;;;5056722;28;20231;-90
2023/07/04 11:17:49;;;;;;;4.60;1.40;;;21.20;99.90;;;;;;5074266;28;20186;-90
2023/07/04 11:20:22;;;;;;;4.10;1.70;;;21.30;1.00;;;;;;5075007;28;20201;-91
2023/07/04 11:22:51;;;;;;;6.17;2.43;;;21.30;1.00;;;;;;5056654;28;20577;-91
2023/07/04 11:25:25;;;;;;;4.37;2.03;;;21.60;1.00;;;;;;5057117;28;20182;-91
2023/07/04 11:28:16;;;;;;;7.30;2.40;;;21.60;1.00;;;;;;5057021;28;20163;-91
2023/07/04 11:30:45;;;;;;;7.60;2.13;;;21.70;1.00;;;;;;5056231;28;20194;-91
2023/07/04 11:33:38;;;;;;;5.37;2.10;;;21.80;1.00;;;;;;5058093;28;20175;-91
2023/07/04 11:36:07;;;;;;;9.53;2.23;;;22.00;1.00;;;;;;5074861;28;20691;-91
2023/07/04 11:38:36;;;;;;;6.43;2.17;;;22.40;1.00;;;;;;5056581;28;20198;-91
2023/07/04 11:41:02;;;;;;;8.07;2.63;;;22.00;1.00;;;;;;5056670;28;20171;-91
2023/07/04 11:43:33;;;;;;;10.63;2.60;;;22.10;1.00;;;;;;5056027;28;20191;-90
2023/07/04 11:46:00;;;;;;;10.37;2.27;;;22.10;1.00;;;;;;5056198;28;20210;-91
2023/07/04 11:48:29;;;;;;;7.70;2.47;;;22.10;1.00;;;;;;5074008;28;20171;-91
2023/07/04 11:51:05;;;;;;;8.33;2.87;;;22.10;99.90;;;;;;5074792;28;20163;-91
2023/07/04 11:53:39;;;;;;;7.43;2.13;;;22.10;99.90;;;;;;5056056;28;20159;-91
2023/07/04 11:56:18;;;;;;;7.77;2.70;;;22.20;99.90;;;;;;5056649;28;20576;-91
2023/07/04 11:58:45;;;;;;;9.00;2.90;;;22.30;1.00;;;;;;5056204;28;20206;-90
2023/07/04 12:01:14;;;;;;;7.03;2.50;;;22.10;99.90;;;;;;5055788;28;20185;-91
2023/07/04 12:04:02;;;;;;;4.40;2.13;;;21.90;99.90;;;;;;5060234;28;20202;-91
2023/07/04 12:06:45;;;;;;;9.43;3.03;;;22.10;1.00;;;;;;5062831;28;20167;-91
2023/07/04 12:09:17;;;;;;;6.30;2.60;;;22.40;1.00;;;;;;5057141;28;20202;-91
2023/07/04 12:11:46;;;;;;;9.60;3.00;;;22.40;99.90;;;;;;5055951;28;20166;-90
2023/07/04 12:14:15;;;;;;;5.53;2.47;;;22.50;99.90;;;;;;5074242;28;20645;-91
2023/07/04 12:16:42;;;;;;;5.83;2.00;;;22.50;1.00;;;;;;5055652;28;20202;-91
2023/07/04 12:19:13;;;;;;;5.87;2.40;;;22.60;99.90;;;;;;5074792;28;20206;-91
2023/07/04 12:21:42;;;;;;;7.70;2.60;;;22.70;1.00;;;;;;5057143;28;20613;-91
2023/07/04 12:24:09;;;;;;;5.93;3.00;;;22.60;99.90;;;;;;5055880;28;20225;-91
2023/07/04 12:26:34;;;;;;;7.77;2.63;;;22.70;99.90;;;;;;5056959;28;20174;-91
2023/07/04 12:29:05;;;;;;;8.23;2.83;;;22.50;99.90;;;;;;5073209;28;20190;-91
2023/07/04 12:31:30;;;;;;;7.77;2.43;;;22.40;1.00;;;;;;5056038;28;20261;-92
2023/07/04 12:33:56;;;;;;;6.43;2.77;;;22.20;99.90;;;;;;5055573;28;20263;-91
2023/07/04 12:36:30;;;;;;;9.57;2.73;;;23.10;1.00;;;;;;5055676;28;20170;-91
2023/07/04 12:38:56;;;;;;;9.87;2.80;;;22.50;99.90;;;;;;5055499;28;20190;-91
2023/07/04 12:41:25;;;;;;;9.67;2.90;;;22.20;99.90;;;;;;5073224;28;20178;-91
2023/07/04 12:44:02;;;;;;;6.37;2.60;;;22.00;99.90;;;;;;5056679;28;20198;-91
2023/07/04 12:46:39;;;;;;;8.10;2.80;;;22.00;1.00;;;;;;5055129;28;20182;-91
2023/07/04 12:49:05;;;;;;;9.77;3.27;;;22.20;1.00;;;;;;5055302;28;20197;-91
2023/07/04 12:51:32;;;;;;;8.23;3.27;;;22.10;1.00;;;;;;5056022;28;20179;-91
2023/07/04 12:54:01;;;;;;;13.03;3.20;;;22.20;1.00;;;;;;5073414;28;20175;-91
2023/07/04 12:56:29;;;;;;;8.80;3.10;;;22.10;99.90;;;;;;5055722;28;20197;-91
2023/07/04 12:58:54;;;;;;;7.80;3.10;;;22.10;99.90;;;;;;5054902;28;20201;-91